aviador You're here:

LEPA Decoded Metar

PALMA DE MALLORCA in SPAIN
Report Time2017-10-17 11:00:00
UTC Time2017-10-17 11:22:38
Flight Rules vfr VFR
WindVRB at 02 kt
Visibility9999 m
Phenomena:N/A
Clouds:Scattered 030 Hf
Expected CloudBase > 3,200 ft AGL from Temp-Dew spread
CeilingNone
Temp25°C (ISA +10)
Dew Point17°C (61% RH)
QNH1023 hPa
Density Alt1,112 ft
Elevation26 ft
Report Wrong Elevation
Raw Report
LEPA 171100Z VRB02KT 9999 SCT030 25/17 Q1023 NOSIG=

Extra information for LEPA:More info

Metar Taf Metar & Taf Last 4 Metars F.Rules Stats Wind Profile Meteogram Temp Stats Airport Information Weather charts Add Link Nearby VenuesMetar ALERT Operation Metar Decoded Social comments

Webcam La Seu Palma